Time;durP1;ratioP1;P1;durP2;ratioP2;P2;SDS_P1;SDS_P2;PMS_P1;PMS_P2;Temp;Humidity;BMP_temperature;BMP_pressure;BME280_temperature;BME280_humidity;BME280_pressure;Samples;Min_cycle;Max_cycle;Signal;HPM_P1;HPM_P2
2023/09/12 00:00:23;;;;;;;17.87;16.07;;;;;;;;;;5092202;28;20258;-79
2023/09/12 00:02:49;;;;;;;23.53;16.83;;;;;;;;;;5092223;28;20473;-79
2023/09/12 00:05:15;;;;;;;20.87;18.87;;;;;;;;;;5092493;28;20410;-79
2023/09/12 00:07:40;;;;;;;22.53;20.27;;;;;;;;;;5092423;28;20525;-79
2023/09/12 00:10:06;;;;;;;20.50;18.33;;;;;;;;;;5091134;28;20172;-79
2023/09/12 00:12:32;;;;;;;22.13;19.90;;;;;;;;;;5091492;28;20180;-79
2023/09/12 00:14:58;;;;;;;29.13;22.50;;;;;;;;;;5091257;28;20973;-79
2023/09/12 00:17:26;;;;;;;25.63;23.20;;;;;;;;;;5091380;28;20260;-80
2023/09/12 00:19:52;;;;;;;32.33;28.53;;;;;;;;;;5091562;28;20406;-79
2023/09/12 00:22:18;;;;;;;31.37;28.27;;;;;;;;;;5092014;28;20424;-79
2023/09/12 00:24:44;;;;;;;35.03;31.23;;;;;;;;;;5092079;28;20168;-79
2023/09/12 00:27:10;;;;;;;38.70;34.43;;;;;;;;;;5087858;28;20631;-79
2023/09/12 00:29:36;;;;;;;39.07;34.20;;;;;;;;;;5091610;28;20214;-79
2023/09/12 00:32:02;;;;;;;39.40;35.30;;;;;;;;;;5090894;28;20936;-79
2023/09/12 00:34:28;;;;;;;40.93;36.53;;;;;;;;;;5092538;28;21875;-79
2023/09/12 00:36:54;;;;;;;43.00;38.37;;;;;;;;;;5092919;28;20409;-79
2023/09/12 00:39:20;;;;;;;43.13;38.50;;;;;;;;;;5095706;28;20167;-79
2023/09/12 00:41:45;;;;;;;47.13;38.03;;;;;;;;;;5095635;28;20415;-79
2023/09/12 00:44:11;;;;;;;41.70;37.17;;;;;;;;;;5095299;28;20409;-79
2023/09/12 00:46:37;;;;;;;45.03;38.47;;;;;;;;;;5095569;28;20203;-79
2023/09/12 00:49:04;;;;;;;44.90;40.00;;;;;;;;;;5095521;28;20941;-80
2023/09/12 00:51:34;;;;;;;40.73;36.47;;;;;;;;;;5095394;28;20410;-80
2023/09/12 00:54:00;;;;;;;47.27;38.60;;;;;;;;;;5095476;28;20494;-80
2023/09/12 00:56:26;;;;;;;44.50;37.53;;;;;;;;;;5094008;28;21009;-79
2023/09/12 00:58:52;;;;;;;43.00;36.03;;;;;;;;;;5094857;28;20407;-80
2023/09/12 01:01:19;;;;;;;44.47;35.13;;;;;;;;;;5094563;28;20899;-79
2023/09/12 01:03:45;;;;;;;41.87;35.83;;;;;;;;;;5095232;28;20829;-79
2023/09/12 01:06:11;;;;;;;43.93;35.80;;;;;;;;;;5095057;28;20398;-79
2023/09/12 01:08:38;;;;;;;37.47;33.40;;;;;;;;;;5095398;28;20421;-79
2023/09/12 01:11:04;;;;;;;41.53;35.30;;;;;;;;;;5095662;28;20403;-79
2023/09/12 01:13:30;;;;;;;36.53;32.63;;;;;;;;;;5095210;28;20414;-79
2023/09/12 01:15:56;;;;;;;44.53;35.10;;;;;;;;;;5095427;28;20506;-79
2023/09/12 01:18:22;;;;;;;35.60;31.17;;;;;;;;;;5095464;28;20415;-79
2023/09/12 01:21:01;;;;;;;38.10;31.47;;;;;;;;;;5095409;28;20419;-79
2023/09/12 01:23:44;;;;;;;39.10;33.57;;;;;;;;;;5095374;28;20169;-79
2023/09/12 01:26:29;;;;;;;36.00;31.60;;;;;;;;;;5095292;28;20407;-79
2023/09/12 01:28:57;;;;;;;37.80;31.90;;;;;;;;;;5093692;28;20420;-79
2023/09/12 01:31:24;;;;;;;37.37;33.47;;;;;;;;;;5095199;28;20907;-79
2023/09/12 01:33:50;;;;;;;39.53;33.90;;;;;;;;;;5093280;28;20505;-79
2023/09/12 01:36:16;;;;;;;40.23;32.50;;;;;;;;;;5084286;28;20913;-79
2023/09/12 01:38:42;;;;;;;37.80;31.03;;;;;;;;;;5074758;28;20182;-80
2023/09/12 01:41:08;;;;;;;39.43;32.33;;;;;;;;;;5074666;28;20180;-80
2023/09/12 01:43:35;;;;;;;36.80;32.27;;;;;;;;;;5074477;28;20410;-80
2023/09/12 01:46:01;;;;;;;35.90;31.93;;;;;;;;;;5074186;28;20415;-80
2023/09/12 01:48:33;;;;;;;39.93;35.30;;;;;;;;;;5074614;28;20533;-80
2023/09/12 01:50:59;;;;;;;36.73;31.10;;;;;;;;;;5074588;28;20767;-80
2023/09/12 01:53:24;;;;;;;42.70;32.20;;;;;;;;;;5074542;28;20895;-80
2023/09/12 01:55:51;;;;;;;39.87;34.80;;;;;;;;;;5074453;28;20623;-80
2023/09/12 01:58:17;;;;;;;39.83;33.60;;;;;;;;;;5089761;28;20656;-80
2023/09/12 02:00:43;;;;;;;40.00;34.10;;;;;;;;;;5074421;28;20407;-80
2023/09/12 02:03:09;;;;;;;45.47;36.20;;;;;;;;;;5074184;28;20461;-80
2023/09/12 02:05:35;;;;;;;38.93;31.90;;;;;;;;;;5074310;28;20204;-78
2023/09/12 02:08:01;;;;;;;38.50;33.20;;;;;;;;;;5074201;28;20935;-79
2023/09/12 02:10:27;;;;;;;37.40;32.10;;;;;;;;;;5074149;28;20408;-79
2023/09/12 02:12:53;;;;;;;40.87;33.30;;;;;;;;;;5073814;28;20468;-79
2023/09/12 02:15:19;;;;;;;36.23;32.33;;;;;;;;;;5073997;28;20487;-79
2023/09/12 02:17:45;;;;;;;39.83;32.17;;;;;;;;;;5074049;28;20408;-79
2023/09/12 02:20:11;;;;;;;38.33;34.20;;;;;;;;;;5074015;28;20395;-78
2023/09/12 02:22:37;;;;;;;39.40;35.20;;;;;;;;;;5073895;28;20169;-78
2023/09/12 02:25:04;;;;;;;40.20;32.23;;;;;;;;;;5073938;28;20474;-78
2023/09/12 02:27:30;;;;;;;42.83;36.23;;;;;;;;;;5073810;28;20460;-78
2023/09/12 02:29:56;;;;;;;43.93;36.30;;;;;;;;;;5073464;28;20450;-79
2023/09/12 02:32:22;;;;;;;41.53;33.60;;;;;;;;;;5073770;28;20177;-78
2023/09/12 02:34:48;;;;;;;44.00;36.23;;;;;;;;;;5089297;28;20779;-79
2023/09/12 02:37:15;;;;;;;38.50;34.50;;;;;;;;;;5073704;28;20173;-79
2023/09/12 02:39:41;;;;;;;43.03;38.53;;;;;;;;;;5073607;28;20168;-78
2023/09/12 02:42:07;;;;;;;46.83;41.77;;;;;;;;;;5073535;28;20407;-78
2023/09/12 02:44:33;;;;;;;49.00;41.77;;;;;;;;;;5073239;28;20537;-78
2023/09/12 02:46:59;;;;;;;50.87;40.30;;;;;;;;;;5073436;28;20171;-79
2023/09/12 02:49:24;;;;;;;50.50;43.07;;;;;;;;;;5073481;28;20494;-78
2023/09/12 02:51:50;;;;;;;46.70;41.80;;;;;;;;;;5073438;28;20259;-80
2023/09/12 02:54:16;;;;;;;50.10;43.87;;;;;;;;;;5073339;28;20181;-79
2023/09/12 02:56:42;;;;;;;46.70;41.70;;;;;;;;;;5073332;28;20180;-79
2023/09/12 02:59:08;;;;;;;53.17;44.27;;;;;;;;;;5087685;28;20184;-79
2023/09/12 03:01:34;;;;;;;47.40;40.60;;;;;;;;;;5073012;28;20278;-79
2023/09/12 03:04:00;;;;;;;46.47;41.40;;;;;;;;;;5073195;28;20415;-79
2023/09/12 03:06:26;;;;;;;46.80;41.60;;;;;;;;;;5073259;28;20226;-79
2023/09/12 03:08:52;;;;;;;47.67;38.97;;;;;;;;;;5073252;28;20898;-79
2023/09/12 03:11:18;;;;;;;54.17;44.17;;;;;;;;;;5073229;28;20259;-78
2023/09/12 03:13:44;;;;;;;48.90;42.27;;;;;;;;;;5072758;28;20426;-79
2023/09/12 03:16:10;;;;;;;48.37;43.10;;;;;;;;;;5073050;28;20573;-78
2023/09/12 03:18:36;;;;;;;47.47;42.13;;;;;;;;;;5073140;28;20410;-78
2023/09/12 03:21:02;;;;;;;49.73;41.33;;;;;;;;;;5073061;28;20886;-78
2023/09/12 03:23:28;;;;;;;47.00;41.93;;;;;;;;;;5073063;28;20599;-78
2023/09/12 03:25:54;;;;;;;53.17;42.10;;;;;;;;;;5072898;28;20466;-79
2023/09/12 03:28:20;;;;;;;48.57;41.53;;;;;;;;;;5088231;28;20916;-79
2023/09/12 03:30:46;;;;;;;48.70;41.73;;;;;;;;;;5072966;28;20180;-79
2023/09/12 03:33:12;;;;;;;52.30;41.50;;;;;;;;;;5088528;28;20933;-79
2023/09/12 03:35:38;;;;;;;44.47;39.73;;;;;;;;;;5072850;28;20173;-79
2023/09/12 03:38:04;;;;;;;45.07;40.20;;;;;;;;;;5072880;28;20974;-79
2023/09/12 03:40:30;;;;;;;40.97;36.43;;;;;;;;;;5072756;28;20482;-79
2023/09/12 03:42:56;;;;;;;53.47;37.70;;;;;;;;;;5072476;28;20418;-79
2023/09/12 03:45:22;;;;;;;44.97;39.40;;;;;;;;;;5072845;28;20482;-79
2023/09/12 03:47:48;;;;;;;41.60;37.07;;;;;;;;;;5072727;28;20411;-79
2023/09/12 03:50:14;;;;;;;41.80;37.27;;;;;;;;;;5072703;28;20425;-79
2023/09/12 03:52:40;;;;;;;40.37;35.30;;;;;;;;;;5072832;28;20171;-80
2023/09/12 03:55:06;;;;;;;40.90;36.17;;;;;;;;;;5072744;28;20407;-79
2023/09/12 03:57:32;;;;;;;43.17;38.40;;;;;;;;;;5072680;28;20404;-79
2023/09/12 03:59:58;;;;;;;45.97;38.30;;;;;;;;;;5072424;28;20410;-79
2023/09/12 04:02:24;;;;;;;44.03;37.70;;;;;;;;;;5072428;28;20814;-79
2023/09/12 04:04:51;;;;;;;45.70;35.80;;;;;;;;;;5072515;28;20249;-79
2023/09/12 04:07:17;;;;;;;41.83;35.40;;;;;;;;;;5072600;28;20415;-79
2023/09/12 04:09:43;;;;;;;41.50;36.97;;;;;;;;;;5073722;28;20400;-79
2023/09/12 04:12:09;;;;;;;39.13;34.30;;;;;;;;;;5076435;28;20410;-79
2023/09/12 04:14:36;;;;;;;45.43;37.90;;;;;;;;;;5076107;28;20410;-78
2023/09/12 04:17:02;;;;;;;42.50;36.93;;;;;;;;;;5076301;28;20188;-78
2023/09/12 04:19:28;;;;;;;47.67;38.53;;;;;;;;;;5076209;28;20505;-79
2023/09/12 04:21:54;;;;;;;43.73;36.27;;;;;;;;;;5074850;28;20530;-78
2023/09/12 04:24:20;;;;;;;41.07;36.70;;;;;;;;;;5076022;28;20465;-79
2023/09/12 04:26:46;;;;;;;43.80;37.90;;;;;;;;;;5076170;28;20231;-78
2023/09/12 04:29:12;;;;;;;42.00;36.60;;;;;;;;;;5091433;28;20505;-78
2023/09/12 04:31:38;;;;;;;41.97;35.70;;;;;;;;;;5076105;28;20569;-78
2023/09/12 04:34:05;;;;;;;38.67;33.60;;;;;;;;;;5076060;28;20173;-78
2023/09/12 04:36:31;;;;;;;37.17;33.30;;;;;;;;;;5075898;28;20179;-79
2023/09/12 04:38:57;;;;;;;42.90;37.23;;;;;;;;;;5091658;28;20414;-79
2023/09/12 04:41:23;;;;;;;46.97;37.73;;;;;;;;;;5095485;28;20191;-78
2023/09/12 04:43:49;;;;;;;44.23;36.53;;;;;;;;;;5098865;28;20921;-78
2023/09/12 04:46:15;;;;;;;39.70;34.60;;;;;;;;;;5095508;28;20206;-79
2023/09/12 04:48:40;;;;;;;39.23;35.00;;;;;;;;;;5096068;28;20168;-79
2023/09/12 04:51:06;;;;;;;47.73;39.17;;;;;;;;;;5094103;28;20632;-78
2023/09/12 04:53:35;;;;;;;43.03;38.53;;;;;;;;;;5094379;28;20184;-78
2023/09/12 04:56:06;;;;;;;41.57;35.57;;;;;;;;;;5077296;28;20241;-79
2023/09/12 04:58:32;;;;;;;40.63;36.20;;;;;;;;;;5093289;28;20460;-77
2023/09/12 05:00:58;;;;;;;45.40;37.87;;;;;;;;;;5095782;28;20440;-78
2023/09/12 05:03:24;;;;;;;48.77;38.60;;;;;;;;;;5095521;28;20444;-78
2023/09/12 05:05:50;;;;;;;49.97;41.00;;;;;;;;;;5093532;28;20219;-78
2023/09/12 05:08:16;;;;;;;46.53;41.53;;;;;;;;;;5084629;28;20895;-78
2023/09/12 05:10:44;;;;;;;49.60;42.77;;;;;;;;;;5075327;28;20759;-77
2023/09/12 05:13:10;;;;;;;49.07;42.07;;;;;;;;;;5075010;28;20429;-77
2023/09/12 05:15:36;;;;;;;46.43;39.40;;;;;;;;;;5075278;28;20423;-79
2023/09/12 05:18:02;;;;;;;46.00;40.80;;;;;;;;;;5094789;28;20178;-79
2023/09/12 05:20:28;;;;;;;45.10;40.17;;;;;;;;;;5094602;28;20492;-79
2023/09/12 05:22:54;;;;;;;46.30;37.97;;;;;;;;;;5092205;28;20422;-77
2023/09/12 05:25:20;;;;;;;49.33;39.60;;;;;;;;;;5092692;28;20247;-78
2023/09/12 05:27:46;;;;;;;43.47;38.53;;;;;;;;;;5087614;28;20179;-79
2023/09/12 05:30:12;;;;;;;44.57;38.30;;;;;;;;;;5090202;28;20779;-78
2023/09/12 05:32:38;;;;;;;45.47;38.00;;;;;;;;;;5092876;28;20635;-77
2023/09/12 05:35:04;;;;;;;46.27;37.90;;;;;;;;;;5095186;28;20467;-77
2023/09/12 05:37:30;;;;;;;40.60;35.63;;;;;;;;;;5094928;28;20781;-76
2023/09/12 05:39:56;;;;;;;46.23;37.33;;;;;;;;;;5094003;28;20422;-77
2023/09/12 05:42:22;;;;;;;45.47;37.13;;;;;;;;;;5094625;28;20910;-79
2023/09/12 05:44:49;;;;;;;45.97;37.77;;;;;;;;;;5094885;28;20225;-78
2023/09/12 05:47:15;;;;;;;48.73;38.67;;;;;;;;;;5093660;28;20422;-78
2023/09/12 05:49:41;;;;;;;45.83;40.67;;;;;;;;;;5094811;28;20439;-78
2023/09/12 05:52:07;;;;;;;40.20;35.30;;;;;;;;;;5094859;28;20851;-78
2023/09/12 05:54:33;;;;;;;42.80;38.10;;;;;;;;;;5094761;28;20451;-78
2023/09/12 05:56:59;;;;;;;45.30;40.30;;;;;;;;;;5094652;28;20409;-78
2023/09/12 05:59:25;;;;;;;42.90;37.90;;;;;;;;;;5094343;28;20267;-77
2023/09/12 06:01:52;;;;;;;45.93;38.63;;;;;;;;;;5094400;28;20314;-77
2023/09/12 06:04:18;;;;;;;42.00;37.43;;;;;;;;;;5094563;28;20210;-77
2023/09/12 06:06:45;;;;;;;47.50;39.13;;;;;;;;;;5094456;28;20520;-77
2023/09/12 06:09:11;;;;;;;42.57;37.87;;;;;;;;;;5094367;28;20487;-79
2023/09/12 06:11:37;;;;;;;44.67;39.30;;;;;;;;;;5094365;28;20418;-76
2023/09/12 06:14:03;;;;;;;50.43;41.30;;;;;;;;;;5094053;28;20224;-77
2023/09/12 06:16:29;;;;;;;42.40;37.93;;;;;;;;;;5094296;28;20425;-77
2023/09/12 06:18:55;;;;;;;43.43;38.80;;;;;;;;;;5094331;28;20677;-77
2023/09/12 06:21:21;;;;;;;45.57;37.60;;;;;;;;;;5093004;28;20454;-77
2023/09/12 06:23:48;;;;;;;46.27;39.63;;;;;;;;;;5094191;28;20206;-77
2023/09/12 06:26:14;;;;;;;45.67;39.77;;;;;;;;;;5093582;28;20477;-78
2023/09/12 06:28:40;;;;;;;45.03;40.03;;;;;;;;;;5093765;28;20788;-77
2023/09/12 06:31:11;;;;;;;45.13;38.90;;;;;;;;;;5094069;28;20183;-76
2023/09/12 06:33:38;;;;;;;51.23;41.90;;;;;;;;;;5093541;28;20433;-77
2023/09/12 06:36:04;;;;;;;54.17;44.10;;;;;;;;;;5092249;28;20432;-77
2023/09/12 06:38:30;;;;;;;47.40;39.70;;;;;;;;;;5093866;28;20411;-77
2023/09/12 06:40:56;;;;;;;46.50;39.33;;;;;;;;;;5092640;28;20914;-77
2023/09/12 06:43:22;;;;;;;49.67;42.07;;;;;;;;;;5093559;28;20422;-77
2023/09/12 06:45:48;;;;;;;43.40;38.70;;;;;;;;;;5093793;28;20473;-76
2023/09/12 06:48:14;;;;;;;45.10;39.67;;;;;;;;;;5093724;28;20594;-76
2023/09/12 06:50:40;;;;;;;46.47;39.10;;;;;;;;;;5093007;28;20417;-77
2023/09/12 06:53:07;;;;;;;46.07;38.97;;;;;;;;;;5093578;28;20406;-77
2023/09/12 06:55:32;;;;;;;45.77;37.90;;;;;;;;;;5093664;28;20420;-77
2023/09/12 06:57:58;;;;;;;42.70;37.93;;;;;;;;;;5093383;28;20898;-76
2023/09/12 07:00:26;;;;;;;44.40;39.87;;;;;;;;;;5093591;28;20425;-77
2023/09/12 07:02:52;;;;;;;45.60;39.23;;;;;;;;;;5093335;28;20755;-79
2023/09/12 07:05:18;;;;;;;44.23;39.47;;;;;;;;;;5093321;28;20500;-77
2023/09/12 07:07:44;;;;;;;43.77;38.27;;;;;;;;;;5093524;28;20254;-81
2023/09/12 07:10:10;;;;;;;44.23;38.77;;;;;;;;;;5093496;28;20764;-76
2023/09/12 07:12:36;;;;;;;41.47;37.00;;;;;;;;;;5093088;28;20421;-77
2023/09/12 07:15:02;;;;;;;46.37;38.60;;;;;;;;;;5092143;28;20778;-77
2023/09/12 07:17:28;;;;;;;44.20;36.03;;;;;;;;;;5092101;28;20190;-77
2023/09/12 07:19:54;;;;;;;43.90;38.00;;;;;;;;;;5093236;28;20746;-77
2023/09/12 07:22:20;;;;;;;48.60;36.33;;;;;;;;;;5093227;28;20436;-76
2023/09/12 07:24:46;;;;;;;41.80;37.47;;;;;;;;;;5091841;28;20453;-77
2023/09/12 07:27:12;;;;;;;42.50;37.90;;;;;;;;;;5092899;28;20194;-77
2023/09/12 07:29:38;;;;;;;41.90;36.20;;;;;;;;;;5093257;28;20205;-76
2023/09/12 07:32:04;;;;;;;47.63;39.43;;;;;;;;;;5091859;28;20231;-77
2023/09/12 07:34:30;;;;;;;45.70;38.03;;;;;;;;;;5093127;28;20457;-76
2023/09/12 07:36:56;;;;;;;43.80;37.23;;;;;;;;;;5093102;28;20413;-77
2023/09/12 07:39:22;;;;;;;45.17;37.20;;;;;;;;;;5093095;28;20612;-76
2023/09/12 07:41:48;;;;;;;44.40;38.80;;;;;;;;;;5093038;28;20410;-76
2023/09/12 07:44:15;;;;;;;49.77;38.70;;;;;;;;;;5092984;28;20582;-76
2023/09/12 07:46:41;;;;;;;43.13;37.43;;;;;;;;;;5097105;28;20519;-77
2023/09/12 07:49:09;;;;;;;47.23;40.20;;;;;;;;;;5097187;28;20438;-76
2023/09/12 07:51:35;;;;;;;46.17;40.07;;;;;;;;;;5097170;28;20466;-76
2023/09/12 07:54:01;;;;;;;45.97;38.83;;;;;;;;;;5096912;28;20407;-77
2023/09/12 07:56:27;;;;;;;41.47;35.67;;;;;;;;;;5097018;28;20426;-77
2023/09/12 07:58:53;;;;;;;45.50;39.03;;;;;;;;;;5096573;28;20466;-77
2023/09/12 08:01:18;;;;;;;42.33;37.77;;;;;;;;;;5095864;28;20915;-77
2023/09/12 08:03:45;;;;;;;41.80;37.30;;;;;;;;;;5095000;28;20993;-77
2023/09/12 08:06:11;;;;;;;40.80;36.27;;;;;;;;;;5094820;28;21049;-77
2023/09/12 08:08:37;;;;;;;42.87;36.20;;;;;;;;;;5096251;28;20407;-77
2023/09/12 08:11:02;;;;;;;39.17;34.97;;;;;;;;;;5096779;28;20466;-77
2023/09/12 08:13:29;;;;;;;36.90;31.43;;;;;;;;;;5095090;28;20405;-77
2023/09/12 08:15:56;;;;;;;33.77;30.17;;;;;;;;;;5096570;28;20521;-78
2023/09/12 08:18:22;;;;;;;36.97;32.30;;;;;;;;;;5096585;28;20478;-77
2023/09/12 08:20:48;;;;;;;35.07;31.33;;;;;;;;;;5096108;28;20410;-78
2023/09/12 08:23:14;;;;;;;37.37;33.07;;;;;;;;;;5096509;28;20901;-77
2023/09/12 08:25:40;;;;;;;36.77;32.03;;;;;;;;;;5096340;28;20513;-77
2023/09/12 08:28:09;;;;;;;34.30;30.40;;;;;;;;;;5096268;28;20204;-76
2023/09/12 08:30:35;;;;;;;32.33;27.50;;;;;;;;;;5096295;28;20414;-77
2023/09/12 08:33:03;;;;;;;33.10;28.30;;;;;;;;;;5094991;28;20421;-77
2023/09/12 08:35:29;;;;;;;35.53;29.83;;;;;;;;;;5096218;28;20426;-77
2023/09/12 08:37:55;;;;;;;31.00;27.43;;;;;;;;;;5096324;28;20411;-77
2023/09/12 08:40:23;;;;;;;33.23;29.70;;;;;;;;;;5096076;28;20442;-79
2023/09/12 08:42:50;;;;;;;35.40;30.90;;;;;;;;;;5095702;28;20860;-77
2023/09/12 08:45:17;;;;;;;32.07;28.60;;;;;;;;;;5094692;28;20600;-77
2023/09/12 08:47:50;;;;;;;34.77;30.00;;;;;;;;;;5095963;28;20428;-77
2023/09/12 08:50:16;;;;;;;32.07;28.90;;;;;;;;;;5096013;28;20403;-77
2023/09/12 08:52:43;;;;;;;32.40;29.00;;;;;;;;;;5095885;28;20509;-79
2023/09/12 08:55:09;;;;;;;31.70;28.30;;;;;;;;;;5095853;28;20457;-77
2023/09/12 08:57:36;;;;;;;32.23;28.83;;;;;;;;;;5095560;28;20415;-76
2023/09/12 09:00:06;;;;;;;29.90;26.87;;;;;;;;;;5095866;28;20775;-76
2023/09/12 09:02:33;;;;;;;30.37;27.33;;;;;;;;;;5095631;28;20459;-77
2023/09/12 09:04:59;;;;;;;29.97;26.87;;;;;;;;;;5095648;28;20463;-76
2023/09/12 09:07:26;;;;;;;27.73;24.77;;;;;;;;;;5095605;28;20412;-77
2023/09/12 09:09:53;;;;;;;27.00;24.40;;;;;;;;;;5095636;28;20519;-76
2023/09/12 09:12:19;;;;;;;30.90;27.80;;;;;;;;;;5095248;28;20504;-77
2023/09/12 09:14:45;;;;;;;27.37;24.67;;;;;;;;;;5095499;28;20465;-77
2023/09/12 09:17:12;;;;;;;27.47;24.70;;;;;;;;;;5095509;28;20408;-76
2023/09/12 09:19:42;;;;;;;27.77;24.87;;;;;;;;;;5095466;28;20179;-77
2023/09/12 09:22:11;;;;;;;27.60;25.03;;;;;;;;;;5095355;28;20941;-77
2023/09/12 09:24:37;;;;;;;27.83;25.07;;;;;;;;;;5095311;28;20421;-77
2023/09/12 09:27:03;;;;;;;27.77;25.07;;;;;;;;;;5094936;28;20419;-78
2023/09/12 09:29:31;;;;;;;25.53;23.00;;;;;;;;;;5095311;28;20410;-77
2023/09/12 09:31:58;;;;;;;26.43;23.90;;;;;;;;;;5095208;28;20777;-77
2023/09/12 09:34:24;;;;;;;26.33;23.67;;;;;;;;;;5095229;28;20414;-77
2023/09/12 09:36:51;;;;;;;28.80;25.87;;;;;;;;;;5095196;28;20405;-78
2023/09/12 09:39:18;;;;;;;27.67;24.77;;;;;;;;;;5095127;28;20470;-77
2023/09/12 09:41:48;;;;;;;28.17;25.13;;;;;;;;;;5094604;28;20412;-78
2023/09/12 09:44:13;;;;;;;28.53;25.63;;;;;;;;;;5093654;28;20914;-78
2023/09/12 09:46:43;;;;;;;27.20;24.40;;;;;;;;;;5094942;28;20472;-78
2023/09/12 09:49:10;;;;;;;29.93;26.73;;;;;;;;;;5095010;28;20411;-78
2023/09/12 09:51:42;;;;;;;29.10;26.17;;;;;;;;;;5094873;28;20619;-77
2023/09/12 09:54:09;;;;;;;27.73;25.07;;;;;;;;;;5094840;28;20411;-78
2023/09/12 09:56:46;;;;;;;29.23;26.40;;;;;;;;;;5094484;28;20457;-77
2023/09/12 09:59:15;;;;;;;29.40;26.50;;;;;;;;;;5094744;28;20493;-77
2023/09/12 10:01:41;;;;;;;28.93;25.83;;;;;;;;;;5094316;28;20533;-78
2023/09/12 10:04:07;;;;;;;28.53;25.63;;;;;;;;;;5093332;28;20862;-78
2023/09/12 10:06:36;;;;;;;27.50;24.60;;;;;;;;;;5094719;28;20533;-81
2023/09/12 10:09:05;;;;;;;30.80;27.60;;;;;;;;;;5087071;28;20932;-79
2023/09/12 10:11:33;;;;;;;29.97;26.83;;;;;;;;;;5092506;28;20423;-79
2023/09/12 10:14:05;;;;;;;28.47;25.57;;;;;;;;;;5092087;28;20970;-79
2023/09/12 10:16:35;;;;;;;27.70;24.73;;;;;;;;;;5093305;28;20878;-79
2023/09/12 10:19:15;;;;;;;30.80;27.83;;;;;;;;;;5093310;28;20414;-79
2023/09/12 10:21:47;;;;;;;29.13;26.10;;;;;;;;;;5092573;28;20565;-79
2023/09/12 10:24:14;;;;;;;29.10;26.03;;;;;;;;;;5092896;28;20439;-79
2023/09/12 10:26:43;;;;;;;30.07;27.07;;;;;;;;;;5091515;28;20902;-80
2023/09/12 10:29:10;;;;;;;28.93;25.93;;;;;;;;;;5078080;28;20896;-79
2023/09/12 10:31:37;;;;;;;29.90;26.90;;;;;;;;;;5084854;28;20533;-91
2023/09/12 10:34:06;;;;;;;28.00;25.10;;;;;;;;;;5094600;28;20416;-83
2023/09/12 10:36:32;;;;;;;27.83;25.10;;;;;;;;;;5093682;28;20431;-81
2023/09/12 10:39:02;;;;;;;30.50;27.40;;;;;;;;;;5093629;28;20412;-80
2023/09/12 10:41:28;;;;;;;31.10;27.90;;;;;;;;;;5093630;28;20421;-79
2023/09/12 10:43:55;;;;;;;28.27;25.57;;;;;;;;;;5093896;28;20408;-80
2023/09/12 10:46:22;;;;;;;30.77;27.60;;;;;;;;;;5093703;28;20994;-80
2023/09/12 10:48:48;;;;;;;29.67;26.80;;;;;;;;;;5093751;28;20405;-81
2023/09/12 10:51:16;;;;;;;28.87;25.90;;;;;;;;;;5093769;28;20416;-80
2023/09/12 10:53:49;;;;;;;28.27;25.47;;;;;;;;;;5093768;28;20419;-80
2023/09/12 10:56:19;;;;;;;26.53;23.90;;;;;;;;;;5093685;28;20411;-82
2023/09/12 10:59:03;;;;;;;28.10;25.57;;;;;;;;;;5093031;28;20421;-81
2023/09/12 11:01:30;;;;;;;25.87;23.47;;;;;;;;;;5090681;28;20424;-81
2023/09/12 11:03:56;;;;;;;25.73;23.27;;;;;;;;;;5093221;28;20905;-81
2023/09/12 11:06:23;;;;;;;27.07;24.47;;;;;;;;;;5092933;28;20521;-81
2023/09/12 11:09:08;;;;;;;24.10;21.53;;;;;;;;;;5093119;28;20496;-81
2023/09/12 11:11:34;;;;;;;23.80;21.60;;;;;;;;;;5093116;28;20834;-81
2023/09/12 11:14:03;;;;;;;24.17;21.97;;;;;;;;;;5093424;28;20491;-81
2023/09/12 11:16:29;;;;;;;24.10;21.60;;;;;;;;;;5093310;28;20178;-81
2023/09/12 11:19:14;;;;;;;21.70;19.60;;;;;;;;;;5092643;28;20495;-81
2023/09/12 11:21:40;;;;;;;21.23;19.03;;;;;;;;;;5091934;28;20183;-81
2023/09/12 11:24:06;;;;;;;20.07;18.00;;;;;;;;;;5092056;28;20766;-81
2023/09/12 11:26:32;;;;;;;19.40;17.40;;;;;;;;;;5092852;28;20475;-81
2023/09/12 11:29:10;;;;;;;19.17;17.27;;;;;;;;;;5093180;28;20471;-81
2023/09/12 11:31:41;;;;;;;21.53;18.17;;;;;;;;;;5091640;28;20204;-81
2023/09/12 11:34:12;;;;;;;18.00;16.30;;;;;;;;;;5091868;28;20798;-82
2023/09/12 11:36:41;;;;;;;19.30;17.40;;;;;;;;;;5091690;28;20517;-82
2023/09/12 11:39:23;;;;;;;17.20;15.60;;;;;;;;;;5090081;28;20476;-82
2023/09/12 11:41:49;;;;;;;15.50;14.20;;;;;;;;;;5089980;28;20410;-82
2023/09/12 11:44:15;;;;;;;17.60;15.43;;;;;;;;;;5092543;28;20475;-84
2023/09/12 11:46:43;;;;;;;18.33;14.70;;;;;;;;;;5092364;28;20502;-85
2023/09/12 11:49:08;;;;;;;16.97;15.30;;;;;;;;;;5092524;28;20910;-83
2023/09/12 11:51:34;;;;;;;17.30;15.80;;;;;;;;;;5092422;28;20419;-83
2023/09/12 11:54:01;;;;;;;15.90;14.40;;;;;;;;;;5092465;28;20172;-82
2023/09/12 11:56:29;;;;;;;15.90;14.40;;;;;;;;;;5089534;28;20180;-83
2023/09/12 11:58:55;;;;;;;15.10;13.60;;;;;;;;;;5088926;28;20775;-83
2023/09/12 12:01:21;;;;;;;16.53;15.13;;;;;;;;;;5092243;28;20428;-82
2023/09/12 12:03:52;;;;;;;15.63;14.03;;;;;;;;;;5092882;28;20407;-82
2023/09/12 12:06:19;;;;;;;15.77;14.27;;;;;;;;;;5092815;28;20547;-83
2023/09/12 12:08:45;;;;;;;15.77;14.30;;;;;;;;;;5092931;28;20408;-84
2023/09/12 12:11:11;;;;;;;17.57;15.90;;;;;;;;;;5092538;28;20416;-82
2023/09/12 12:13:37;;;;;;;15.13;13.60;;;;;;;;;;5092852;28;20534;-87
2023/09/12 12:16:15;;;;;;;16.20;14.80;;;;;;;;;;5092896;28;20178;-85
2023/09/12 12:18:41;;;;;;;17.23;13.40;;;;;;;;;;5093335;28;20192;-84
2023/09/12 12:21:07;;;;;;;15.63;14.17;;;;;;;;;;5091823;28;20421;-83
2023/09/12 12:23:33;;;;;;;14.00;12.70;;;;;;;;;;5091717;28;20407;-83
2023/09/12 12:26:03;;;;;;;13.47;12.17;;;;;;;;;;5091658;28;20475;-88
2023/09/12 12:28:29;;;;;;;11.73;10.70;;;;;;;;;;5092618;28;20220;-89
2023/09/12 12:30:55;;;;;;;14.30;12.90;;;;;;;;;;5094437;28;20970;-88
2023/09/12 12:33:21;;;;;;;13.87;12.37;;;;;;;;;;5096980;28;20174;-82
2023/09/12 12:35:47;;;;;;;14.57;13.27;;;;;;;;;;5096547;28;20435;-82
2023/09/12 12:38:13;;;;;;;13.40;12.03;;;;;;;;;;5096418;28;20818;-85
2023/09/12 12:40:40;;;;;;;14.90;13.43;;;;;;;;;;5096352;28;20438;-83
2023/09/12 12:43:06;;;;;;;13.23;12.00;;;;;;;;;;5095935;28;20769;-82
2023/09/12 12:45:32;;;;;;;13.27;12.00;;;;;;;;;;5096115;28;20468;-82
2023/09/12 12:47:58;;;;;;;12.37;11.10;;;;;;;;;;5096232;28;20497;-82
2023/09/12 12:50:24;;;;;;;12.40;11.10;;;;;;;;;;5095834;28;20486;-82
2023/09/12 12:52:50;;;;;;;12.13;11.10;;;;;;;;;;5095385;28;20953;-83
2023/09/12 12:55:17;;;;;;;12.37;11.27;;;;;;;;;;5095344;28;20413;-83
2023/09/12 12:57:43;;;;;;;13.27;11.87;;;;;;;;;;5095095;28;20244;-85
2023/09/12 13:00:13;;;;;;;13.23;12.00;;;;;;;;;;5095383;28;20416;-83
2023/09/12 13:02:39;;;;;;;13.20;12.10;;;;;;;;;;5095246;28;20534;-83
2023/09/12 13:05:08;;;;;;;14.07;12.77;;;;;;;;;;5095222;28;20649;-82
2023/09/12 13:07:35;;;;;;;13.00;11.80;;;;;;;;;;5092554;28;20417;-85
2023/09/12 13:10:01;;;;;;;13.63;12.43;;;;;;;;;;5094003;28;20423;-84
2023/09/12 13:12:27;;;;;;;12.27;11.07;;;;;;;;;;5095015;28;20423;-81
2023/09/12 13:14:53;;;;;;;12.73;11.53;;;;;;;;;;5095044;28;20885;-81
2023/09/12 13:17:19;;;;;;;12.60;11.53;;;;;;;;;;5095047;28;20448;-80
2023/09/12 13:19:45;;;;;;;13.33;12.13;;;;;;;;;;5094960;28;20171;-84
2023/09/12 13:22:11;;;;;;;13.33;12.07;;;;;;;;;;5094715;28;20538;-82
2023/09/12 13:24:37;;;;;;;13.60;12.30;;;;;;;;;;5093561;28;20400;-82
2023/09/12 13:27:03;;;;;;;11.87;10.80;;;;;;;;;;5099940;28;20420;-82
2023/09/12 13:29:29;;;;;;;14.40;13.00;;;;;;;;;;5096378;28;20425;-82
2023/09/12 13:31:55;;;;;;;12.27;11.00;;;;;;;;;;5095144;28;20433;-88
2023/09/12 13:34:21;;;;;;;11.87;10.83;;;;;;;;;;5094058;28;20461;-81
2023/09/12 13:36:47;;;;;;;13.00;11.10;;;;;;;;;;5095236;28;20425;-81
2023/09/12 13:39:13;;;;;;;12.03;10.90;;;;;;;;;;5095238;28;20258;-82
2023/09/12 13:41:40;;;;;;;10.83;9.93;;;;;;;;;;5094429;28;20453;-82
2023/09/12 13:44:06;;;;;;;11.07;10.00;;;;;;;;;;5094542;28;20171;-84
2023/09/12 13:46:32;;;;;;;9.93;9.13;;;;;;;;;;5094904;28;20475;-87
2023/09/12 13:49:03;;;;;;;10.63;9.60;;;;;;;;;;5094923;28;20401;-85
2023/09/12 13:51:29;;;;;;;10.20;9.30;;;;;;;;;;5095041;28;20420;-85
2023/09/12 13:53:54;;;;;;;10.87;9.87;;;;;;;;;;5095098;28;20405;-85
2023/09/12 13:56:20;;;;;;;11.20;10.10;;;;;;;;;;5094543;28;20180;-84
2023/09/12 13:58:46;;;;;;;10.60;9.60;;;;;;;;;;5094798;28;20177;-86
2023/09/12 14:01:12;;;;;;;11.73;10.63;;;;;;;;;;5094512;28;20444;-85
2023/09/12 14:03:38;;;;;;;10.77;9.70;;;;;;;;;;5094716;28;20261;-86
2023/09/12 14:06:04;;;;;;;11.27;10.10;;;;;;;;;;5094697;28;20303;-87
2023/09/12 14:08:30;;;;;;;12.13;10.93;;;;;;;;;;5094643;28;20207;-86
2023/09/12 14:10:56;;;;;;;11.60;10.50;;;;;;;;;;5094300;28;20403;-86
2023/09/12 14:13:22;;;;;;;13.20;12.07;;;;;;;;;;5093266;28;20435;-86